Airfield :
LOGIN :

Register | Disclaimer

   EN    FR    IT 

 










Legend :    VFR   Marginal VFR   IFR   Intensive IFR   Very Intensive IFR
Visi :
Ceiling :
>= 8 km
>= 3000ft
5 to 8 km
1000 to 3000 ft
1500m to 5 km
500 to 1000 ft
800 to 1500m
200 to 500 ft
< 800m
< 200 ft
Symbols :   Thunderstorms  Fog  Heavy snow  Heavy precipitations  Wind > 20 kt
SIGMETs :     Misc.  Thunderstorms  Icing  Turbulence  Mountain Waves  Volcanic Ashes







- Airport Elevation : 49 ft
- IATA code : GLZ


EHGR - Gilze-Rijen Airbase

CURRENT METAR :
  • 241455Z AUTO 15006KT 090V160 9999 SCT360 32/17 Q1017 BLU

EXPIRED METARs :
  • 241425Z AUTO 11006KT 090V220 9999 BKN057 BKN380 32/19 Q1017 BLU
  • 241413Z AUTO VRB05KT 9999 SCT054 SCT060 32/18 Q1017 BLU
  • 241355Z AUTO 13003KT 110V240 9999 FEW057 BKN340 32/18 Q1017 BLU 13008KT CAVOK
  • 241325Z AUTO 18005KT 100V200 9999 SCT052 BKN058 31/17 Q1017 BLU 13008KT CAVOK
  • 241255Z AUTO VRB05KT 9999 FEW053 BKN370 31/19 Q1017 BLU 13008KT CAVOK
  • 241225Z AUTO 13006KT 110V210 9999 FEW360 31/18 Q1017 BLU 13008KT CAVOK RMK TS INFO NOT AVBL

TAF TAF EHGR
Valid from the 24 at 09:00 until the 24 at 21:00 UTC


240822Z 2409/2421 14007KT CAVOK
PROB40 2418/2421 VRB03KT
No reported NOTAMs for that airfield.



MET'MAP, your aeronautical weather chart ! - Copyright ORBIFLY December 2007 - Disclaimer

ORBIFLY MET'MAP TEAM :

Programming & Development : Alexandra Zaïnal
Concept & Development : Baudouin d'Aumeries
Co-Development & Prog : Marc-Olivier Méhu
Technical & hardware support : Manuel Goepfert

Contact : metmap@orbifly.com




SOURCES & CREDITS :

   NOAA